CMB839 Details

Departure: Yokota AFB (RJTY)
Arrival: Elmendorf Air Force Base (PAED) at N/A
Route: DAIGO Y889 OATIS OTR3 PUTER A590 HAMND SPAIR GRUUB1
Notes: USTRANSCOM CONTRACT FLIGHT


Current Weather Information
RJTY 251056Z AUTO 19005KT 10SM BKN100 25/20 A2989 RMK AO2 SLP118 T02470202 FZRANO $
PAED 251056Z AUTO 00000KT 10SM SCT085 10/04 A2985 RMK AO2 SLP104 T01000037 $